sensor_id;sensor_type;location;lat;lon;timestamp;temperature;humidity
13072;DHT22;6602;58.934;11.166;2023-02-18T00:05:16;5.50;99.90
13072;DHT22;6602;58.934;11.166;2023-02-18T00:10:35;5.40;99.90
13072;DHT22;6602;58.934;11.166;2023-02-18T00:16:01;5.40;99.90
13072;DHT22;6602;58.934;11.166;2023-02-18T00:21:21;5.30;99.90
13072;DHT22;6602;58.934;11.166;2023-02-18T00:26:43;5.30;99.90
13072;DHT22;6602;58.934;11.166;2023-02-18T00:32:03;5.20;99.90
13072;DHT22;6602;58.934;11.166;2023-02-18T00:37:24;5.20;99.90
13072;DHT22;6602;58.934;11.166;2023-02-18T00:42:44;5.10;99.90
13072;DHT22;6602;58.934;11.166;2023-02-18T00:48:04;5.10;99.90
13072;DHT22;6602;58.934;11.166;2023-02-18T00:53:27;5.00;99.90
13072;DHT22;6602;58.934;11.166;2023-02-18T00:58:49;5.00;99.90
13072;DHT22;6602;58.934;11.166;2023-02-18T01:04:09;4.90;99.90
13072;DHT22;6602;58.934;11.166;2023-02-18T01:09:31;4.80;99.90
13072;DHT22;6602;58.934;11.166;2023-02-18T01:14:51;4.80;99.90
13072;DHT22;6602;58.934;11.166;2023-02-18T01:20:11;4.70;99.90
13072;DHT22;6602;58.934;11.166;2023-02-18T01:25:33;4.80;99.90
13072;DHT22;6602;58.934;11.166;2023-02-18T01:30:54;4.70;99.90
13072;DHT22;6602;58.934;11.166;2023-02-18T01:36:16;4.70;99.90
13072;DHT22;6602;58.934;11.166;2023-02-18T01:41:35;4.70;99.90
13072;DHT22;6602;58.934;11.166;2023-02-18T01:46:55;4.60;99.90
13072;DHT22;6602;58.934;11.166;2023-02-18T01:52:18;4.50;99.90
13072;DHT22;6602;58.934;11.166;2023-02-18T01:57:41;4.50;99.90
13072;DHT22;6602;58.934;11.166;2023-02-18T02:03:01;4.40;99.90
13072;DHT22;6602;58.934;11.166;2023-02-18T02:08:21;4.30;99.90
13072;DHT22;6602;58.934;11.166;2023-02-18T02:42:02;4.10;99.90
13072;DHT22;6602;58.934;11.166;2023-02-18T02:52:53;4.10;99.90
13072;DHT22;6602;58.934;11.166;2023-02-18T02:58:17;4.10;99.90
13072;DHT22;6602;58.934;11.166;2023-02-18T03:15:07;4.10;99.90
13072;DHT22;6602;58.934;11.166;2023-02-18T03:20:54;4.10;99.90
13072;DHT22;6602;58.934;11.166;2023-02-18T03:26:18;4.00;99.90
13072;DHT22;6602;58.934;11.166;2023-02-18T03:31:39;4.00;99.90
13072;DHT22;6602;58.934;11.166;2023-02-18T03:37:02;4.10;99.90
13072;DHT22;6602;58.934;11.166;2023-02-18T03:42:27;4.10;99.90
13072;DHT22;6602;58.934;11.166;2023-02-18T03:47:48;4.10;99.90
13072;DHT22;6602;58.934;11.166;2023-02-18T03:53:08;4.20;99.90
13072;DHT22;6602;58.934;11.166;2023-02-18T03:58:27;4.20;99.90
13072;DHT22;6602;58.934;11.166;2023-02-18T04:03:47;4.20;99.90
13072;DHT22;6602;58.934;11.166;2023-02-18T04:09:06;4.10;99.90
13072;DHT22;6602;58.934;11.166;2023-02-18T04:14:26;4.10;99.90
13072;DHT22;6602;58.934;11.166;2023-02-18T04:19:46;4.10;99.90
13072;DHT22;6602;58.934;11.166;2023-02-18T04:25:06;4.00;99.90
13072;DHT22;6602;58.934;11.166;2023-02-18T04:30:28;4.10;99.90
13072;DHT22;6602;58.934;11.166;2023-02-18T04:35:48;4.00;99.90
13072;DHT22;6602;58.934;11.166;2023-02-18T04:41:08;4.00;99.90
13072;DHT22;6602;58.934;11.166;2023-02-18T04:46:27;4.00;99.90
13072;DHT22;6602;58.934;11.166;2023-02-18T04:51:48;4.00;99.90
13072;DHT22;6602;58.934;11.166;2023-02-18T04:57:08;4.00;99.90
13072;DHT22;6602;58.934;11.166;2023-02-18T05:02:27;4.00;99.90
13072;DHT22;6602;58.934;11.166;2023-02-18T05:07:47;4.00;99.90
13072;DHT22;6602;58.934;11.166;2023-02-18T05:13:07;4.00;99.90
13072;DHT22;6602;58.934;11.166;2023-02-18T05:18:26;4.00;99.90
13072;DHT22;6602;58.934;11.166;2023-02-18T05:23:45;4.00;99.90
13072;DHT22;6602;58.934;11.166;2023-02-18T05:29:05;4.00;99.90
13072;DHT22;6602;58.934;11.166;2023-02-18T05:34:25;3.90;99.90
13072;DHT22;6602;58.934;11.166;2023-02-18T05:39:44;3.90;99.90
13072;DHT22;6602;58.934;11.166;2023-02-18T05:45:04;3.90;99.90
13072;DHT22;6602;58.934;11.166;2023-02-18T05:50:23;3.90;99.90
13072;DHT22;6602;58.934;11.166;2023-02-18T05:55:43;3.90;99.90
13072;DHT22;6602;58.934;11.166;2023-02-18T06:01:03;3.90;99.90
13072;DHT22;6602;58.934;11.166;2023-02-18T06:06:22;3.90;99.90
13072;DHT22;6602;58.934;11.166;2023-02-18T06:11:42;3.90;99.90
13072;DHT22;6602;58.934;11.166;2023-02-18T06:17:01;3.90;99.90
13072;DHT22;6602;58.934;11.166;2023-02-18T06:22:21;3.90;99.90
13072;DHT22;6602;58.934;11.166;2023-02-18T06:27:41;3.80;99.90
13072;DHT22;6602;58.934;11.166;2023-02-18T06:33:00;3.90;99.90
13072;DHT22;6602;58.934;11.166;2023-02-18T06:38:23;3.90;99.90
13072;DHT22;6602;58.934;11.166;2023-02-18T06:43:47;3.90;99.90
13072;DHT22;6602;58.934;11.166;2023-02-18T06:49:08;3.90;99.90
13072;DHT22;6602;58.934;11.166;2023-02-18T06:54:28;3.80;99.90
13072;DHT22;6602;58.934;11.166;2023-02-18T06:59:47;3.90;99.90
13072;DHT22;6602;58.934;11.166;2023-02-18T07:05:08;3.90;99.90
13072;DHT22;6602;58.934;11.166;2023-02-18T07:10:28;3.90;99.90
13072;DHT22;6602;58.934;11.166;2023-02-18T07:15:48;4.00;99.90
13072;DHT22;6602;58.934;11.166;2023-02-18T07:21:07;4.10;99.90
13072;DHT22;6602;58.934;11.166;2023-02-18T07:26:27;4.20;99.90
13072;DHT22;6602;58.934;11.166;2023-02-18T07:31:46;4.30;99.90
13072;DHT22;6602;58.934;11.166;2023-02-18T07:37:05;4.40;99.90
13072;DHT22;6602;58.934;11.166;2023-02-18T07:42:27;4.60;99.90
13072;DHT22;6602;58.934;11.166;2023-02-18T07:47:47;4.60;99.90
13072;DHT22;6602;58.934;11.166;2023-02-18T07:53:08;4.50;99.90
13072;DHT22;6602;58.934;11.166;2023-02-18T07:58:34;4.60;99.90
13072;DHT22;6602;58.934;11.166;2023-02-18T08:03:53;4.70;99.90
13072;DHT22;6602;58.934;11.166;2023-02-18T08:09:14;4.70;99.90
13072;DHT22;6602;58.934;11.166;2023-02-18T08:14:36;4.80;99.90
13072;DHT22;6602;58.934;11.166;2023-02-18T08:19:55;4.90;99.90
13072;DHT22;6602;58.934;11.166;2023-02-18T08:25:16;4.90;99.90
13072;DHT22;6602;58.934;11.166;2023-02-18T08:30:35;5.00;99.90
13072;DHT22;6602;58.934;11.166;2023-02-18T08:35:56;5.20;99.90
13072;DHT22;6602;58.934;11.166;2023-02-18T08:41:16;5.20;99.90
13072;DHT22;6602;58.934;11.166;2023-02-18T08:46:38;5.20;99.90
13072;DHT22;6602;58.934;11.166;2023-02-18T08:51:57;5.20;99.90
13072;DHT22;6602;58.934;11.166;2023-02-18T08:57:17;5.30;99.90
13072;DHT22;6602;58.934;11.166;2023-02-18T09:02:37;5.30;99.90
13072;DHT22;6602;58.934;11.166;2023-02-18T09:07:56;5.40;99.90
13072;DHT22;6602;58.934;11.166;2023-02-18T09:13:17;5.50;99.90
13072;DHT22;6602;58.934;11.166;2023-02-18T09:18:40;5.50;99.90
13072;DHT22;6602;58.934;11.166;2023-02-18T09:24:00;5.60;99.90
13072;DHT22;6602;58.934;11.166;2023-02-18T09:29:20;5.70;99.90
13072;DHT22;6602;58.934;11.166;2023-02-18T09:34:39;5.80;99.90
13072;DHT22;6602;58.934;11.166;2023-02-18T09:40:02;5.90;99.90
13072;DHT22;6602;58.934;11.166;2023-02-18T09:45:25;5.70;99.90
13072;DHT22;6602;58.934;11.166;2023-02-18T09:50:48;5.60;99.90
13072;DHT22;6602;58.934;11.166;2023-02-18T09:56:36;5.40;99.90
13072;DHT22;6602;58.934;11.166;2023-02-18T10:01:58;5.50;99.90
13072;DHT22;6602;58.934;11.166;2023-02-18T10:07:27;5.50;99.90
13072;DHT22;6602;58.934;11.166;2023-02-18T10:12:49;5.40;99.90
13072;DHT22;6602;58.934;11.166;2023-02-18T10:18:29;5.50;99.90
13072;DHT22;6602;58.934;11.166;2023-02-18T10:23:58;5.50;99.90
13072;DHT22;6602;58.934;11.166;2023-02-18T10:29:20;5.60;99.90
13072;DHT22;6602;58.934;11.166;2023-02-18T10:34:41;5.60;99.90
13072;DHT22;6602;58.934;11.166;2023-02-18T10:51:36;5.80;99.90
13072;DHT22;6602;58.934;11.166;2023-02-18T10:56:59;5.70;99.90
13072;DHT22;6602;58.934;11.166;2023-02-18T11:02:18;5.80;99.90
13072;DHT22;6602;58.934;11.166;2023-02-18T11:07:39;5.80;99.90
13072;DHT22;6602;58.934;11.166;2023-02-18T11:13:06;5.90;99.90
13072;DHT22;6602;58.934;11.166;2023-02-18T11:18:40;6.20;99.90
13072;DHT22;6602;58.934;11.166;2023-02-18T11:24:09;6.20;99.90
13072;DHT22;6602;58.934;11.166;2023-02-18T11:29:34;6.20;99.90
13072;DHT22;6602;58.934;11.166;2023-02-18T11:34:54;6.20;99.90
13072;DHT22;6602;58.934;11.166;2023-02-18T11:40:27;6.30;99.90
13072;DHT22;6602;58.934;11.166;2023-02-18T11:46:10;6.50;99.90
13072;DHT22;6602;58.934;11.166;2023-02-18T11:51:48;6.60;99.90
13072;DHT22;6602;58.934;11.166;2023-02-18T11:57:15;6.40;99.90
13072;DHT22;6602;58.934;11.166;2023-02-18T12:02:37;6.40;99.90
13072;DHT22;6602;58.934;11.166;2023-02-18T12:08:16;6.40;99.90
13072;DHT22;6602;58.934;11.166;2023-02-18T12:13:52;6.40;99.90
13072;DHT22;6602;58.934;11.166;2023-02-18T12:25:56;6.40;99.90
13072;DHT22;6602;58.934;11.166;2023-02-18T13:05:42;6.50;99.90
13072;DHT22;6602;58.934;11.166;2023-02-18T13:16:53;6.50;99.90
13072;DHT22;6602;58.934;11.166;2023-02-18T13:22:19;6.40;99.90
13072;DHT22;6602;58.934;11.166;2023-02-18T13:39:09;6.50;99.90
13072;DHT22;6602;58.934;11.166;2023-02-18T13:45:02;6.40;99.90
13072;DHT22;6602;58.934;11.166;2023-02-18T13:50:29;6.40;99.90
13072;DHT22;6602;58.934;11.166;2023-02-18T13:56:02;6.30;99.90
13072;DHT22;6602;58.934;11.166;2023-02-18T14:01:39;6.30;99.90
13072;DHT22;6602;58.934;11.166;2023-02-18T14:13:02;6.30;99.90
13072;DHT22;6602;58.934;11.166;2023-02-18T14:24:01;6.20;99.90
13072;DHT22;6602;58.934;11.166;2023-02-18T14:29:33;6.10;99.90
13072;DHT22;6602;58.934;11.166;2023-02-18T14:35:07;6.10;99.90
13072;DHT22;6602;58.934;11.166;2023-02-18T14:46:58;6.10;99.90
13072;DHT22;6602;58.934;11.166;2023-02-18T14:52:53;6.10;99.90
13072;DHT22;6602;58.934;11.166;2023-02-18T14:58:43;6.00;99.90
13072;DHT22;6602;58.934;11.166;2023-02-18T15:04:14;6.00;99.90
13072;DHT22;6602;58.934;11.166;2023-02-18T15:09:48;6.00;99.90
13072;DHT22;6602;58.934;11.166;2023-02-18T15:15:12;5.90;99.90
13072;DHT22;6602;58.934;11.166;2023-02-18T15:20:33;5.90;99.90
13072;DHT22;6602;58.934;11.166;2023-02-18T15:25:53;5.80;99.90
13072;DHT22;6602;58.934;11.166;2023-02-18T15:31:14;5.80;99.90
13072;DHT22;6602;58.934;11.166;2023-02-18T15:36:34;5.70;99.90
13072;DHT22;6602;58.934;11.166;2023-02-18T15:42:00;5.70;99.90
13072;DHT22;6602;58.934;11.166;2023-02-18T15:47:22;5.60;99.90
13072;DHT22;6602;58.934;11.166;2023-02-18T15:52:41;5.60;99.90
13072;DHT22;6602;58.934;11.166;2023-02-18T15:58:06;5.50;99.90
13072;DHT22;6602;58.934;11.166;2023-02-18T16:03:29;5.50;99.90
13072;DHT22;6602;58.934;11.166;2023-02-18T16:20:31;4.80;99.90
13072;DHT22;6602;58.934;11.166;2023-02-18T16:25:51;4.70;99.90
13072;DHT22;6602;58.934;11.166;2023-02-18T16:31:10;4.50;99.90
13072;DHT22;6602;58.934;11.166;2023-02-18T16:36:30;4.50;99.90
13072;DHT22;6602;58.934;11.166;2023-02-18T16:41:53;4.50;99.90
13072;DHT22;6602;58.934;11.166;2023-02-18T16:47:16;4.50;99.90
13072;DHT22;6602;58.934;11.166;2023-02-18T16:52:36;4.50;99.90
13072;DHT22;6602;58.934;11.166;2023-02-18T16:57:56;4.50;99.90
13072;DHT22;6602;58.934;11.166;2023-02-18T17:03:15;4.40;99.90
13072;DHT22;6602;58.934;11.166;2023-02-18T17:08:35;4.40;99.90
13072;DHT22;6602;58.934;11.166;2023-02-18T17:13:55;4.30;99.90
13072;DHT22;6602;58.934;11.166;2023-02-18T17:19:16;4.20;99.90
13072;DHT22;6602;58.934;11.166;2023-02-18T17:24:36;4.10;99.90
13072;DHT22;6602;58.934;11.166;2023-02-18T17:29:55;4.00;99.90
13072;DHT22;6602;58.934;11.166;2023-02-18T17:35:18;4.10;99.90
13072;DHT22;6602;58.934;11.166;2023-02-18T17:40:38;4.10;99.90
13072;DHT22;6602;58.934;11.166;2023-02-18T17:45:59;4.00;99.90
13072;DHT22;6602;58.934;11.166;2023-02-18T17:51:24;3.90;99.90
13072;DHT22;6602;58.934;11.166;2023-02-18T17:56:44;3.90;99.90
13072;DHT22;6602;58.934;11.166;2023-02-18T18:02:23;3.90;99.90
13072;DHT22;6602;58.934;11.166;2023-02-18T18:07:44;3.80;99.90
13072;DHT22;6602;58.934;11.166;2023-02-18T18:13:07;3.70;99.90
13072;DHT22;6602;58.934;11.166;2023-02-18T18:18:27;3.70;99.90
13072;DHT22;6602;58.934;11.166;2023-02-18T18:23:57;3.70;99.90
13072;DHT22;6602;58.934;11.166;2023-02-18T18:29:18;3.70;99.90
13072;DHT22;6602;58.934;11.166;2023-02-18T18:34:40;3.70;99.90
13072;DHT22;6602;58.934;11.166;2023-02-18T18:40:00;3.60;99.90
13072;DHT22;6602;58.934;11.166;2023-02-18T18:45:26;3.50;99.90
13072;DHT22;6602;58.934;11.166;2023-02-18T18:50:46;3.40;99.90
13072;DHT22;6602;58.934;11.166;2023-02-18T18:56:09;3.40;99.90
13072;DHT22;6602;58.934;11.166;2023-02-18T19:01:29;3.30;99.90
13072;DHT22;6602;58.934;11.166;2023-02-18T19:06:48;3.20;99.90
13072;DHT22;6602;58.934;11.166;2023-02-18T19:12:09;3.20;99.90
13072;DHT22;6602;58.934;11.166;2023-02-18T19:17:30;3.10;99.90
13072;DHT22;6602;58.934;11.166;2023-02-18T19:22:49;3.10;99.90
13072;DHT22;6602;58.934;11.166;2023-02-18T19:28:10;3.00;99.90
13072;DHT22;6602;58.934;11.166;2023-02-18T19:33:32;2.90;99.90
13072;DHT22;6602;58.934;11.166;2023-02-18T19:38:51;2.80;99.90
13072;DHT22;6602;58.934;11.166;2023-02-18T19:44:13;2.80;99.90
13072;DHT22;6602;58.934;11.166;2023-02-18T19:49:34;2.70;99.90
13072;DHT22;6602;58.934;11.166;2023-02-18T19:54:54;2.70;99.90
13072;DHT22;6602;58.934;11.166;2023-02-18T20:00:17;2.70;99.90
13072;DHT22;6602;58.934;11.166;2023-02-18T20:05:36;2.70;99.90
13072;DHT22;6602;58.934;11.166;2023-02-18T20:10:57;2.70;99.90
13072;DHT22;6602;58.934;11.166;2023-02-18T20:16:17;2.60;99.90
13072;DHT22;6602;58.934;11.166;2023-02-18T20:21:36;2.60;99.90
13072;DHT22;6602;58.934;11.166;2023-02-18T20:26:56;2.60;99.90
13072;DHT22;6602;58.934;11.166;2023-02-18T20:32:17;2.60;99.90
13072;DHT22;6602;58.934;11.166;2023-02-18T20:37:39;2.60;99.90
13072;DHT22;6602;58.934;11.166;2023-02-18T20:42:59;2.60;99.90
13072;DHT22;6602;58.934;11.166;2023-02-18T20:48:23;2.50;99.90
13072;DHT22;6602;58.934;11.166;2023-02-18T20:53:43;2.50;99.90
13072;DHT22;6602;58.934;11.166;2023-02-18T20:59:05;2.50;99.90
13072;DHT22;6602;58.934;11.166;2023-02-18T21:04:24;2.40;99.90
13072;DHT22;6602;58.934;11.166;2023-02-18T21:09:45;2.30;99.90
13072;DHT22;6602;58.934;11.166;2023-02-18T21:15:04;2.30;99.90
13072;DHT22;6602;58.934;11.166;2023-02-18T21:20:27;2.20;99.90
13072;DHT22;6602;58.934;11.166;2023-02-18T21:25:47;2.20;99.90
13072;DHT22;6602;58.934;11.166;2023-02-18T21:31:18;2.20;99.90
13072;DHT22;6602;58.934;11.166;2023-02-18T21:36:37;2.20;99.90
13072;DHT22;6602;58.934;11.166;2023-02-18T21:41:57;2.30;99.90
13072;DHT22;6602;58.934;11.166;2023-02-18T21:47:19;2.30;99.90
13072;DHT22;6602;58.934;11.166;2023-02-18T21:52:26;2.30;99.90
13072;DHT22;6602;58.934;11.166;2023-02-18T21:57:47;2.30;99.90
13072;DHT22;6602;58.934;11.166;2023-02-18T22:03:11;2.30;99.90
13072;DHT22;6602;58.934;11.166;2023-02-18T22:08:30;2.30;99.90
13072;DHT22;6602;58.934;11.166;2023-02-18T22:13:50;2.20;99.90
13072;DHT22;6602;58.934;11.166;2023-02-18T22:18:55;2.20;99.90
13072;DHT22;6602;58.934;11.166;2023-02-18T22:24:16;2.10;99.90
13072;DHT22;6602;58.934;11.166;2023-02-18T22:29:37;2.20;99.90
13072;DHT22;6602;58.934;11.166;2023-02-18T22:34:59;2.20;99.90
13072;DHT22;6602;58.934;11.166;2023-02-18T22:40:19;2.20;99.90
13072;DHT22;6602;58.934;11.166;2023-02-18T22:45:39;2.20;99.90
13072;DHT22;6602;58.934;11.166;2023-02-18T22:51:10;2.10;99.90
13072;DHT22;6602;58.934;11.166;2023-02-18T22:56:30;2.10;99.90
13072;DHT22;6602;58.934;11.166;2023-02-18T23:01:49;2.00;99.90
13072;DHT22;6602;58.934;11.166;2023-02-18T23:07:10;2.10;99.90
13072;DHT22;6602;58.934;11.166;2023-02-18T23:12:30;2.10;99.90
13072;DHT22;6602;58.934;11.166;2023-02-18T23:17:51;2.10;99.90
13072;DHT22;6602;58.934;11.166;2023-02-18T23:23:11;2.00;99.90
13072;DHT22;6602;58.934;11.166;2023-02-18T23:28:16;2.00;99.90
13072;DHT22;6602;58.934;11.166;2023-02-18T23:33:35;2.00;99.90
13072;DHT22;6602;58.934;11.166;2023-02-18T23:38:59;2.00;99.90
13072;DHT22;6602;58.934;11.166;2023-02-18T23:44:23;2.00;99.90
13072;DHT22;6602;58.934;11.166;2023-02-18T23:49:42;1.90;99.90
13072;DHT22;6602;58.934;11.166;2023-02-18T23:55:02;1.90;99.90
